sensor_id;sensor_type;location;lat;lon;timestamp;P1;durP1;ratioP1;P2;durP2;ratioP2
12474;SDS011;6302;42.624;23.334;2023-03-19T00:02:04;5.70;;;4.67;;
12474;SDS011;6302;42.624;23.334;2023-03-19T00:04:31;4.80;;;4.30;;
12474;SDS011;6302;42.624;23.334;2023-03-19T00:06:58;5.47;;;4.63;;
12474;SDS011;6302;42.624;23.334;2023-03-19T00:09:27;7.60;;;4.67;;
12474;SDS011;6302;42.624;23.334;2023-03-19T00:11:54;7.07;;;5.07;;
12474;SDS011;6302;42.624;23.334;2023-03-19T00:14:21;6.20;;;4.50;;
12474;SDS011;6302;42.624;23.334;2023-03-19T00:16:47;7.87;;;5.13;;
12474;SDS011;6302;42.624;23.334;2023-03-19T00:19:14;4.70;;;4.30;;
12474;SDS011;6302;42.624;23.334;2023-03-19T00:21:41;4.53;;;4.10;;
12474;SDS011;6302;42.624;23.334;2023-03-19T00:24:08;5.93;;;4.70;;
12474;SDS011;6302;42.624;23.334;2023-03-19T00:26:37;4.87;;;4.33;;
12474;SDS011;6302;42.624;23.334;2023-03-19T00:29:04;6.73;;;5.00;;
12474;SDS011;6302;42.624;23.334;2023-03-19T00:31:31;8.47;;;5.50;;
12474;SDS011;6302;42.624;23.334;2023-03-19T00:33:58;5.53;;;4.77;;
12474;SDS011;6302;42.624;23.334;2023-03-19T00:36:26;8.27;;;5.13;;
12474;SDS011;6302;42.624;23.334;2023-03-19T00:38:54;5.67;;;4.57;;
12474;SDS011;6302;42.624;23.334;2023-03-19T00:41:21;5.80;;;5.20;;
12474;SDS011;6302;42.624;23.334;2023-03-19T00:43:52;6.90;;;5.47;;
12474;SDS011;6302;42.624;23.334;2023-03-19T00:46:20;8.40;;;5.63;;
12474;SDS011;6302;42.624;23.334;2023-03-19T00:48:47;5.90;;;4.73;;
12474;SDS011;6302;42.624;23.334;2023-03-19T00:51:15;4.83;;;4.33;;
12474;SDS011;6302;42.624;23.334;2023-03-19T00:53:42;6.50;;;5.33;;
12474;SDS011;6302;42.624;23.334;2023-03-19T00:56:10;5.60;;;4.70;;
12474;SDS011;6302;42.624;23.334;2023-03-19T00:58:38;10.30;;;5.30;;
12474;SDS011;6302;42.624;23.334;2023-03-19T01:01:07;5.40;;;4.70;;
12474;SDS011;6302;42.624;23.334;2023-03-19T01:03:35;7.70;;;5.20;;
12474;SDS011;6302;42.624;23.334;2023-03-19T01:06:02;5.23;;;4.30;;
12474;SDS011;6302;42.624;23.334;2023-03-19T01:08:29;5.50;;;5.00;;
12474;SDS011;6302;42.624;23.334;2023-03-19T01:10:56;6.50;;;4.53;;
12474;SDS011;6302;42.624;23.334;2023-03-19T01:13:30;5.80;;;4.07;;
12474;SDS011;6302;42.624;23.334;2023-03-19T01:15:57;5.30;;;4.20;;
12474;SDS011;6302;42.624;23.334;2023-03-19T01:18:25;4.83;;;4.27;;
12474;SDS011;6302;42.624;23.334;2023-03-19T01:20:52;4.60;;;4.20;;
12474;SDS011;6302;42.624;23.334;2023-03-19T01:23:19;4.40;;;4.00;;
12474;SDS011;6302;42.624;23.334;2023-03-19T01:25:45;5.10;;;4.37;;
12474;SDS011;6302;42.624;23.334;2023-03-19T01:28:12;5.60;;;4.50;;
12474;SDS011;6302;42.624;23.334;2023-03-19T01:30:39;5.93;;;4.90;;
12474;SDS011;6302;42.624;23.334;2023-03-19T01:33:06;6.67;;;4.83;;
12474;SDS011;6302;42.624;23.334;2023-03-19T01:35:38;7.60;;;4.93;;
12474;SDS011;6302;42.624;23.334;2023-03-19T01:38:05;8.87;;;6.13;;
12474;SDS011;6302;42.624;23.334;2023-03-19T01:40:32;11.03;;;6.73;;
12474;SDS011;6302;42.624;23.334;2023-03-19T01:43:11;15.23;;;7.97;;
12474;SDS011;6302;42.624;23.334;2023-03-19T01:45:40;16.43;;;8.93;;
12474;SDS011;6302;42.624;23.334;2023-03-19T01:48:10;14.47;;;8.10;;
12474;SDS011;6302;42.624;23.334;2023-03-19T01:50:46;9.87;;;6.70;;
12474;SDS011;6302;42.624;23.334;2023-03-19T01:53:18;11.73;;;6.90;;
12474;SDS011;6302;42.624;23.334;2023-03-19T01:55:48;9.47;;;6.03;;
12474;SDS011;6302;42.624;23.334;2023-03-19T01:58:17;8.17;;;6.03;;
12474;SDS011;6302;42.624;23.334;2023-03-19T02:00:44;7.13;;;5.97;;
12474;SDS011;6302;42.624;23.334;2023-03-19T02:03:11;8.40;;;5.97;;
12474;SDS011;6302;42.624;23.334;2023-03-19T02:05:38;6.77;;;6.10;;
12474;SDS011;6302;42.624;23.334;2023-03-19T02:08:11;8.00;;;5.93;;
12474;SDS011;6302;42.624;23.334;2023-03-19T02:10:41;7.43;;;5.77;;
12474;SDS011;6302;42.624;23.334;2023-03-19T02:13:09;8.97;;;5.97;;
12474;SDS011;6302;42.624;23.334;2023-03-19T02:15:37;7.37;;;5.00;;
12474;SDS011;6302;42.624;23.334;2023-03-19T02:18:04;8.37;;;5.97;;
12474;SDS011;6302;42.624;23.334;2023-03-19T02:20:33;6.93;;;5.30;;
12474;SDS011;6302;42.624;23.334;2023-03-19T02:23:07;7.13;;;5.10;;
12474;SDS011;6302;42.624;23.334;2023-03-19T02:25:41;7.13;;;5.37;;
12474;SDS011;6302;42.624;23.334;2023-03-19T02:28:37;7.27;;;4.80;;
12474;SDS011;6302;42.624;23.334;2023-03-19T02:31:06;7.40;;;5.30;;
12474;SDS011;6302;42.624;23.334;2023-03-19T02:33:34;6.07;;;5.20;;
12474;SDS011;6302;42.624;23.334;2023-03-19T02:36:01;5.57;;;5.07;;
12474;SDS011;6302;42.624;23.334;2023-03-19T02:38:31;6.10;;;4.73;;
12474;SDS011;6302;42.624;23.334;2023-03-19T02:40:59;7.67;;;5.50;;
12474;SDS011;6302;42.624;23.334;2023-03-19T02:43:29;6.23;;;5.47;;
12474;SDS011;6302;42.624;23.334;2023-03-19T02:45:57;6.87;;;5.67;;
12474;SDS011;6302;42.624;23.334;2023-03-19T02:48:24;6.03;;;5.07;;
12474;SDS011;6302;42.624;23.334;2023-03-19T02:50:52;6.27;;;4.70;;
12474;SDS011;6302;42.624;23.334;2023-03-19T02:53:19;5.77;;;4.67;;
12474;SDS011;6302;42.624;23.334;2023-03-19T02:55:45;4.30;;;3.50;;
12474;SDS011;6302;42.624;23.334;2023-03-19T02:58:12;4.80;;;4.30;;
12474;SDS011;6302;42.624;23.334;2023-03-19T03:00:39;5.87;;;4.30;;
12474;SDS011;6302;42.624;23.334;2023-03-19T03:03:08;4.93;;;3.87;;
12474;SDS011;6302;42.624;23.334;2023-03-19T03:05:35;4.33;;;3.80;;
12474;SDS011;6302;42.624;23.334;2023-03-19T03:08:02;6.37;;;5.10;;
12474;SDS011;6302;42.624;23.334;2023-03-19T03:10:29;7.23;;;4.40;;
12474;SDS011;6302;42.624;23.334;2023-03-19T03:12:56;5.67;;;4.57;;
12474;SDS011;6302;42.624;23.334;2023-03-19T03:15:24;4.77;;;4.30;;
12474;SDS011;6302;42.624;23.334;2023-03-19T03:17:50;5.20;;;4.17;;
12474;SDS011;6302;42.624;23.334;2023-03-19T03:20:19;4.67;;;4.27;;
12474;SDS011;6302;42.624;23.334;2023-03-19T03:22:46;4.87;;;3.97;;
12474;SDS011;6302;42.624;23.334;2023-03-19T03:25:14;7.07;;;5.13;;
12474;SDS011;6302;42.624;23.334;2023-03-19T03:27:41;7.83;;;6.07;;
12474;SDS011;6302;42.624;23.334;2023-03-19T03:30:09;9.43;;;6.40;;
12474;SDS011;6302;42.624;23.334;2023-03-19T03:32:36;10.10;;;6.40;;
12474;SDS011;6302;42.624;23.334;2023-03-19T03:35:05;8.97;;;5.70;;
12474;SDS011;6302;42.624;23.334;2023-03-19T03:37:33;8.43;;;6.13;;
12474;SDS011;6302;42.624;23.334;2023-03-19T03:40:00;9.03;;;6.07;;
12474;SDS011;6302;42.624;23.334;2023-03-19T03:42:30;7.03;;;5.83;;
12474;SDS011;6302;42.624;23.334;2023-03-19T03:44:58;7.77;;;5.37;;
12474;SDS011;6302;42.624;23.334;2023-03-19T03:47:24;7.23;;;5.53;;
12474;SDS011;6302;42.624;23.334;2023-03-19T03:49:51;8.70;;;4.93;;
12474;SDS011;6302;42.624;23.334;2023-03-19T03:52:18;8.53;;;4.73;;
12474;SDS011;6302;42.624;23.334;2023-03-19T03:54:46;4.37;;;3.97;;
12474;SDS011;6302;42.624;23.334;2023-03-19T03:57:13;8.30;;;5.63;;
12474;SDS011;6302;42.624;23.334;2023-03-19T03:59:40;8.03;;;5.60;;
12474;SDS011;6302;42.624;23.334;2023-03-19T04:02:07;6.93;;;5.67;;
12474;SDS011;6302;42.624;23.334;2023-03-19T04:04:33;8.17;;;5.97;;
12474;SDS011;6302;42.624;23.334;2023-03-19T04:07:00;10.00;;;7.23;;
12474;SDS011;6302;42.624;23.334;2023-03-19T04:09:30;8.43;;;5.83;;
12474;SDS011;6302;42.624;23.334;2023-03-19T04:11:58;7.90;;;5.10;;
12474;SDS011;6302;42.624;23.334;2023-03-19T04:14:25;5.93;;;4.90;;
12474;SDS011;6302;42.624;23.334;2023-03-19T04:16:52;6.83;;;5.73;;
12474;SDS011;6302;42.624;23.334;2023-03-19T04:19:19;6.07;;;5.30;;
12474;SDS011;6302;42.624;23.334;2023-03-19T04:21:46;6.57;;;5.07;;
12474;SDS011;6302;42.624;23.334;2023-03-19T04:24:13;6.87;;;5.63;;
12474;SDS011;6302;42.624;23.334;2023-03-19T04:26:40;8.47;;;5.63;;
12474;SDS011;6302;42.624;23.334;2023-03-19T04:29:08;10.17;;;6.87;;
12474;SDS011;6302;42.624;23.334;2023-03-19T04:31:35;16.70;;;7.70;;
12474;SDS011;6302;42.624;23.334;2023-03-19T04:34:02;16.03;;;9.23;;
12474;SDS011;6302;42.624;23.334;2023-03-19T04:36:29;20.73;;;11.60;;
12474;SDS011;6302;42.624;23.334;2023-03-19T04:38:56;30.33;;;14.47;;
12474;SDS011;6302;42.624;23.334;2023-03-19T04:41:23;36.53;;;16.67;;
12474;SDS011;6302;42.624;23.334;2023-03-19T04:43:50;41.57;;;18.00;;
12474;SDS011;6302;42.624;23.334;2023-03-19T04:46:18;50.77;;;20.87;;
12474;SDS011;6302;42.624;23.334;2023-03-19T04:48:45;53.80;;;23.50;;
12474;SDS011;6302;42.624;23.334;2023-03-19T04:51:12;57.33;;;23.37;;
12474;SDS011;6302;42.624;23.334;2023-03-19T04:53:39;45.07;;;19.57;;
12474;SDS011;6302;42.624;23.334;2023-03-19T04:56:06;32.63;;;14.93;;
12474;SDS011;6302;42.624;23.334;2023-03-19T04:58:33;24.57;;;12.30;;
12474;SDS011;6302;42.624;23.334;2023-03-19T05:01:00;18.40;;;10.23;;
12474;SDS011;6302;42.624;23.334;2023-03-19T05:03:29;15.63;;;8.47;;
12474;SDS011;6302;42.624;23.334;2023-03-19T05:05:56;11.77;;;7.83;;
12474;SDS011;6302;42.624;23.334;2023-03-19T05:08:23;11.53;;;7.43;;
12474;SDS011;6302;42.624;23.334;2023-03-19T05:10:49;12.27;;;7.67;;
12474;SDS011;6302;42.624;23.334;2023-03-19T05:13:16;8.83;;;6.50;;
12474;SDS011;6302;42.624;23.334;2023-03-19T05:15:43;11.13;;;6.90;;
12474;SDS011;6302;42.624;23.334;2023-03-19T05:18:11;10.97;;;6.97;;
12474;SDS011;6302;42.624;23.334;2023-03-19T05:20:40;13.97;;;7.27;;
12474;SDS011;6302;42.624;23.334;2023-03-19T05:23:08;15.33;;;8.73;;
12474;SDS011;6302;42.624;23.334;2023-03-19T05:25:35;14.90;;;9.47;;
12474;SDS011;6302;42.624;23.334;2023-03-19T05:28:02;14.70;;;8.50;;
12474;SDS011;6302;42.624;23.334;2023-03-19T05:30:31;11.93;;;8.87;;
12474;SDS011;6302;42.624;23.334;2023-03-19T05:32:58;12.10;;;7.77;;
12474;SDS011;6302;42.624;23.334;2023-03-19T05:35:25;10.57;;;7.20;;
12474;SDS011;6302;42.624;23.334;2023-03-19T05:37:56;7.97;;;5.67;;
12474;SDS011;6302;42.624;23.334;2023-03-19T05:40:23;10.17;;;7.13;;
12474;SDS011;6302;42.624;23.334;2023-03-19T05:42:50;10.63;;;7.20;;
12474;SDS011;6302;42.624;23.334;2023-03-19T05:45:17;10.53;;;6.50;;
12474;SDS011;6302;42.624;23.334;2023-03-19T05:47:45;8.57;;;5.40;;
12474;SDS011;6302;42.624;23.334;2023-03-19T05:50:12;12.97;;;6.50;;
12474;SDS011;6302;42.624;23.334;2023-03-19T05:52:39;9.70;;;6.73;;
12474;SDS011;6302;42.624;23.334;2023-03-19T05:55:08;13.53;;;6.87;;
12474;SDS011;6302;42.624;23.334;2023-03-19T05:57:35;6.40;;;5.43;;
12474;SDS011;6302;42.624;23.334;2023-03-19T06:00:03;7.83;;;5.57;;
12474;SDS011;6302;42.624;23.334;2023-03-19T06:02:32;7.60;;;5.40;;
12474;SDS011;6302;42.624;23.334;2023-03-19T06:04:59;10.50;;;7.17;;
12474;SDS011;6302;42.624;23.334;2023-03-19T06:07:26;10.03;;;6.27;;
12474;SDS011;6302;42.624;23.334;2023-03-19T06:09:52;9.43;;;6.37;;
12474;SDS011;6302;42.624;23.334;2023-03-19T06:12:21;23.97;;;12.17;;
12474;SDS011;6302;42.624;23.334;2023-03-19T06:14:47;15.13;;;8.97;;
12474;SDS011;6302;42.624;23.334;2023-03-19T06:17:14;11.47;;;6.63;;
12474;SDS011;6302;42.624;23.334;2023-03-19T06:19:42;7.03;;;5.97;;
12474;SDS011;6302;42.624;23.334;2023-03-19T06:22:09;7.87;;;5.87;;
12474;SDS011;6302;42.624;23.334;2023-03-19T06:24:36;6.10;;;5.30;;
12474;SDS011;6302;42.624;23.334;2023-03-19T06:27:02;8.30;;;5.57;;
12474;SDS011;6302;42.624;23.334;2023-03-19T06:29:31;6.40;;;5.57;;
12474;SDS011;6302;42.624;23.334;2023-03-19T06:31:58;7.37;;;5.23;;
12474;SDS011;6302;42.624;23.334;2023-03-19T06:34:24;5.70;;;5.20;;
12474;SDS011;6302;42.624;23.334;2023-03-19T06:36:52;6.00;;;4.73;;
12474;SDS011;6302;42.624;23.334;2023-03-19T06:39:19;5.77;;;5.17;;
12474;SDS011;6302;42.624;23.334;2023-03-19T06:41:47;5.63;;;5.10;;
12474;SDS011;6302;42.624;23.334;2023-03-19T06:44:14;8.17;;;5.40;;
12474;SDS011;6302;42.624;23.334;2023-03-19T06:46:43;7.90;;;5.03;;
12474;SDS011;6302;42.624;23.334;2023-03-19T06:49:10;8.17;;;5.37;;
12474;SDS011;6302;42.624;23.334;2023-03-19T06:51:37;7.43;;;5.63;;
12474;SDS011;6302;42.624;23.334;2023-03-19T06:54:04;5.33;;;4.50;;
12474;SDS011;6302;42.624;23.334;2023-03-19T06:56:30;6.40;;;5.40;;
12474;SDS011;6302;42.624;23.334;2023-03-19T06:58:57;5.63;;;5.03;;
12474;SDS011;6302;42.624;23.334;2023-03-19T07:01:24;5.67;;;5.17;;
12474;SDS011;6302;42.624;23.334;2023-03-19T07:03:53;5.80;;;5.20;;
12474;SDS011;6302;42.624;23.334;2023-03-19T07:06:19;6.77;;;5.37;;
12474;SDS011;6302;42.624;23.334;2023-03-19T07:08:46;6.03;;;5.10;;
12474;SDS011;6302;42.624;23.334;2023-03-19T07:11:14;6.90;;;5.53;;
12474;SDS011;6302;42.624;23.334;2023-03-19T07:13:41;6.77;;;5.00;;
12474;SDS011;6302;42.624;23.334;2023-03-19T07:16:08;7.17;;;6.10;;
12474;SDS011;6302;42.624;23.334;2023-03-19T07:18:34;6.27;;;5.50;;
12474;SDS011;6302;42.624;23.334;2023-03-19T07:21:03;6.30;;;5.70;;
12474;SDS011;6302;42.624;23.334;2023-03-19T07:23:30;7.47;;;5.73;;
12474;SDS011;6302;42.624;23.334;2023-03-19T07:25:57;7.20;;;5.47;;
12474;SDS011;6302;42.624;23.334;2023-03-19T07:28:23;7.90;;;5.30;;
12474;SDS011;6302;42.624;23.334;2023-03-19T07:30:50;7.70;;;6.43;;
12474;SDS011;6302;42.624;23.334;2023-03-19T07:33:18;11.03;;;7.60;;
12474;SDS011;6302;42.624;23.334;2023-03-19T07:35:45;6.77;;;5.47;;
12474;SDS011;6302;42.624;23.334;2023-03-19T07:38:13;11.87;;;6.60;;
12474;SDS011;6302;42.624;23.334;2023-03-19T07:40:40;10.43;;;6.93;;
12474;SDS011;6302;42.624;23.334;2023-03-19T07:43:07;8.93;;;6.40;;
12474;SDS011;6302;42.624;23.334;2023-03-19T07:45:34;7.33;;;6.30;;
12474;SDS011;6302;42.624;23.334;2023-03-19T07:48:01;8.97;;;6.97;;
12474;SDS011;6302;42.624;23.334;2023-03-19T07:50:30;8.60;;;7.70;;
12474;SDS011;6302;42.624;23.334;2023-03-19T07:52:57;11.10;;;7.57;;
12474;SDS011;6302;42.624;23.334;2023-03-19T07:55:26;12.83;;;7.27;;
12474;SDS011;6302;42.624;23.334;2023-03-19T07:57:52;12.47;;;8.00;;
12474;SDS011;6302;42.624;23.334;2023-03-19T08:00:19;9.67;;;7.23;;
12474;SDS011;6302;42.624;23.334;2023-03-19T08:02:46;10.43;;;6.87;;
12474;SDS011;6302;42.624;23.334;2023-03-19T08:05:14;14.60;;;7.73;;
12474;SDS011;6302;42.624;23.334;2023-03-19T08:07:40;9.20;;;6.97;;
12474;SDS011;6302;42.624;23.334;2023-03-19T08:10:09;10.37;;;6.73;;
12474;SDS011;6302;42.624;23.334;2023-03-19T08:12:38;10.87;;;7.50;;
12474;SDS011;6302;42.624;23.334;2023-03-19T08:15:07;10.70;;;7.00;;
12474;SDS011;6302;42.624;23.334;2023-03-19T08:17:35;12.03;;;7.20;;
12474;SDS011;6302;42.624;23.334;2023-03-19T08:20:04;9.73;;;7.07;;
12474;SDS011;6302;42.624;23.334;2023-03-19T08:22:33;9.40;;;7.43;;
12474;SDS011;6302;42.624;23.334;2023-03-19T08:25:01;13.07;;;8.83;;
12474;SDS011;6302;42.624;23.334;2023-03-19T08:27:28;12.17;;;8.93;;
12474;SDS011;6302;42.624;23.334;2023-03-19T08:29:57;13.07;;;7.73;;
12474;SDS011;6302;42.624;23.334;2023-03-19T08:32:23;9.90;;;7.37;;
12474;SDS011;6302;42.624;23.334;2023-03-19T08:34:51;10.20;;;7.73;;
12474;SDS011;6302;42.624;23.334;2023-03-19T08:37:17;9.70;;;7.77;;
12474;SDS011;6302;42.624;23.334;2023-03-19T08:39:45;10.47;;;7.70;;
12474;SDS011;6302;42.624;23.334;2023-03-19T08:42:11;13.03;;;7.57;;
12474;SDS011;6302;42.624;23.334;2023-03-19T08:44:39;9.63;;;7.30;;
12474;SDS011;6302;42.624;23.334;2023-03-19T08:47:07;12.03;;;7.93;;
12474;SDS011;6302;42.624;23.334;2023-03-19T08:49:34;11.63;;;7.67;;
12474;SDS011;6302;42.624;23.334;2023-03-19T08:52:01;8.47;;;7.40;;
12474;SDS011;6302;42.624;23.334;2023-03-19T08:54:27;11.13;;;8.00;;
12474;SDS011;6302;42.624;23.334;2023-03-19T08:56:54;14.30;;;8.20;;
12474;SDS011;6302;42.624;23.334;2023-03-19T08:59:21;12.07;;;8.03;;
12474;SDS011;6302;42.624;23.334;2023-03-19T09:01:49;10.40;;;7.53;;
12474;SDS011;6302;42.624;23.334;2023-03-19T09:04:18;14.10;;;8.33;;
12474;SDS011;6302;42.624;23.334;2023-03-19T09:06:45;8.87;;;7.03;;
12474;SDS011;6302;42.624;23.334;2023-03-19T09:09:15;10.83;;;7.63;;
12474;SDS011;6302;42.624;23.334;2023-03-19T09:11:42;10.43;;;8.13;;
12474;SDS011;6302;42.624;23.334;2023-03-19T09:14:08;15.13;;;8.37;;
12474;SDS011;6302;42.624;23.334;2023-03-19T09:16:36;11.37;;;7.97;;
12474;SDS011;6302;42.624;23.334;2023-03-19T09:19:03;9.90;;;7.70;;
12474;SDS011;6302;42.624;23.334;2023-03-19T09:21:32;8.17;;;7.33;;
12474;SDS011;6302;42.624;23.334;2023-03-19T09:23:59;10.03;;;8.03;;
12474;SDS011;6302;42.624;23.334;2023-03-19T09:26:26;9.37;;;7.80;;
12474;SDS011;6302;42.624;23.334;2023-03-19T09:28:53;9.30;;;7.30;;
12474;SDS011;6302;42.624;23.334;2023-03-19T09:31:20;12.87;;;9.13;;
12474;SDS011;6302;42.624;23.334;2023-03-19T09:33:47;10.80;;;8.40;;
12474;SDS011;6302;42.624;23.334;2023-03-19T09:36:15;14.43;;;8.60;;
12474;SDS011;6302;42.624;23.334;2023-03-19T09:38:43;10.97;;;8.03;;
12474;SDS011;6302;42.624;23.334;2023-03-19T09:41:12;9.93;;;7.73;;
12474;SDS011;6302;42.624;23.334;2023-03-19T09:43:55;9.13;;;8.13;;
12474;SDS011;6302;42.624;23.334;2023-03-19T09:46:26;10.27;;;8.57;;
12474;SDS011;6302;42.624;23.334;2023-03-19T09:48:59;10.17;;;8.07;;
12474;SDS011;6302;42.624;23.334;2023-03-19T09:51:34;13.33;;;7.80;;
12474;SDS011;6302;42.624;23.334;2023-03-19T09:54:12;12.07;;;8.30;;
12474;SDS011;6302;42.624;23.334;2023-03-19T09:56:46;12.37;;;8.13;;
12474;SDS011;6302;42.624;23.334;2023-03-19T09:59:22;11.53;;;9.20;;
12474;SDS011;6302;42.624;23.334;2023-03-19T10:01:52;12.13;;;8.60;;
12474;SDS011;6302;42.624;23.334;2023-03-19T10:07:33;13.03;;;9.33;;
12474;SDS011;6302;42.624;23.334;2023-03-19T10:13:01;12.00;;;8.90;;
12474;SDS011;6302;42.624;23.334;2023-03-19T10:15:37;12.53;;;9.00;;
12474;SDS011;6302;42.624;23.334;2023-03-19T10:18:06;11.13;;;9.17;;
12474;SDS011;6302;42.624;23.334;2023-03-19T10:20:40;12.83;;;9.33;;
12474;SDS011;6302;42.624;23.334;2023-03-19T10:23:27;14.17;;;9.57;;
12474;SDS011;6302;42.624;23.334;2023-03-19T10:26:03;15.03;;;9.97;;
12474;SDS011;6302;42.624;23.334;2023-03-19T10:28:32;10.67;;;9.10;;
12474;SDS011;6302;42.624;23.334;2023-03-19T10:31:06;10.87;;;9.60;;
12474;SDS011;6302;42.624;23.334;2023-03-19T10:33:49;14.93;;;9.57;;
12474;SDS011;6302;42.624;23.334;2023-03-19T10:36:20;10.47;;;8.30;;
12474;SDS011;6302;42.624;23.334;2023-03-19T10:38:52;11.97;;;9.20;;
12474;SDS011;6302;42.624;23.334;2023-03-19T10:44:09;11.20;;;9.17;;
12474;SDS011;6302;42.624;23.334;2023-03-19T10:46:42;12.63;;;8.90;;
12474;SDS011;6302;42.624;23.334;2023-03-19T10:49:13;11.60;;;7.03;;
12474;SDS011;6302;42.624;23.334;2023-03-19T10:51:41;12.47;;;8.97;;
12474;SDS011;6302;42.624;23.334;2023-03-19T10:54:20;12.73;;;9.23;;
12474;SDS011;6302;42.624;23.334;2023-03-19T10:56:50;14.73;;;9.13;;
12474;SDS011;6302;42.624;23.334;2023-03-19T10:59:21;12.17;;;8.40;;
12474;SDS011;6302;42.624;23.334;2023-03-19T11:01:54;10.07;;;8.90;;
12474;SDS011;6302;42.624;23.334;2023-03-19T11:04:23;11.40;;;8.43;;
12474;SDS011;6302;42.624;23.334;2023-03-19T11:06:52;8.73;;;7.10;;
12474;SDS011;6302;42.624;23.334;2023-03-19T11:09:23;11.63;;;7.90;;
12474;SDS011;6302;42.624;23.334;2023-03-19T11:12:04;10.27;;;8.70;;
12474;SDS011;6302;42.624;23.334;2023-03-19T11:14:33;11.03;;;8.83;;
12474;SDS011;6302;42.624;23.334;2023-03-19T11:17:04;10.37;;;8.20;;
12474;SDS011;6302;42.624;23.334;2023-03-19T11:19:34;11.30;;;8.20;;
12474;SDS011;6302;42.624;23.334;2023-03-19T11:22:07;10.40;;;9.00;;
12474;SDS011;6302;42.624;23.334;2023-03-19T11:24:40;11.13;;;8.30;;
12474;SDS011;6302;42.624;23.334;2023-03-19T11:27:15;12.73;;;8.57;;
12474;SDS011;6302;42.624;23.334;2023-03-19T11:29:43;11.87;;;8.53;;
12474;SDS011;6302;42.624;23.334;2023-03-19T11:32:17;10.37;;;8.20;;
12474;SDS011;6302;42.624;23.334;2023-03-19T11:35:03;10.07;;;8.27;;
12474;SDS011;6302;42.624;23.334;2023-03-19T11:37:39;10.57;;;7.90;;
12474;SDS011;6302;42.624;23.334;2023-03-19T11:40:19;9.47;;;8.37;;
12474;SDS011;6302;42.624;23.334;2023-03-19T11:43:01;10.57;;;8.20;;
12474;SDS011;6302;42.624;23.334;2023-03-19T11:45:38;11.80;;;7.83;;
12474;SDS011;6302;42.624;23.334;2023-03-19T11:48:20;12.97;;;7.90;;
12474;SDS011;6302;42.624;23.334;2023-03-19T11:51:00;9.73;;;7.00;;
12474;SDS011;6302;42.624;23.334;2023-03-19T11:53:36;8.37;;;7.50;;
12474;SDS011;6302;42.624;23.334;2023-03-19T11:56:09;9.00;;;7.60;;
12474;SDS011;6302;42.624;23.334;2023-03-19T11:58:51;10.77;;;7.63;;
12474;SDS011;6302;42.624;23.334;2023-03-19T12:01:37;9.37;;;8.13;;
12474;SDS011;6302;42.624;23.334;2023-03-19T12:04:30;8.80;;;7.70;;
12474;SDS011;6302;42.624;23.334;2023-03-19T12:07:11;8.60;;;7.57;;
12474;SDS011;6302;42.624;23.334;2023-03-19T12:09:51;9.13;;;7.83;;
12474;SDS011;6302;42.624;23.334;2023-03-19T12:12:27;12.00;;;8.00;;
12474;SDS011;6302;42.624;23.334;2023-03-19T12:15:07;9.50;;;7.80;;
12474;SDS011;6302;42.624;23.334;2023-03-19T12:17:43;10.57;;;7.77;;
12474;SDS011;6302;42.624;23.334;2023-03-19T12:20:24;8.17;;;7.10;;
12474;SDS011;6302;42.624;23.334;2023-03-19T12:23:04;8.47;;;7.00;;
12474;SDS011;6302;42.624;23.334;2023-03-19T12:25:42;8.27;;;6.90;;
12474;SDS011;6302;42.624;23.334;2023-03-19T12:28:21;7.83;;;6.80;;
12474;SDS011;6302;42.624;23.334;2023-03-19T12:30:56;9.70;;;8.07;;
12474;SDS011;6302;42.624;23.334;2023-03-19T12:33:46;9.03;;;7.83;;
12474;SDS011;6302;42.624;23.334;2023-03-19T12:36:18;11.43;;;6.87;;
12474;SDS011;6302;42.624;23.334;2023-03-19T12:38:50;11.10;;;6.80;;
12474;SDS011;6302;42.624;23.334;2023-03-19T12:41:21;9.10;;;6.53;;
12474;SDS011;6302;42.624;23.334;2023-03-19T12:43:51;8.73;;;7.30;;
12474;SDS011;6302;42.624;23.334;2023-03-19T12:46:26;10.43;;;6.40;;
12474;SDS011;6302;42.624;23.334;2023-03-19T12:48:57;8.37;;;6.60;;
12474;SDS011;6302;42.624;23.334;2023-03-19T12:51:32;9.70;;;6.07;;
12474;SDS011;6302;42.624;23.334;2023-03-19T12:54:02;10.37;;;6.27;;
12474;SDS011;6302;42.624;23.334;2023-03-19T12:56:34;9.00;;;6.40;;
12474;SDS011;6302;42.624;23.334;2023-03-19T12:59:07;8.23;;;6.53;;
12474;SDS011;6302;42.624;23.334;2023-03-19T13:01:43;8.83;;;6.27;;
12474;SDS011;6302;42.624;23.334;2023-03-19T13:04:13;9.57;;;5.87;;
12474;SDS011;6302;42.624;23.334;2023-03-19T13:06:47;8.67;;;6.47;;
12474;SDS011;6302;42.624;23.334;2023-03-19T13:09:21;6.73;;;5.97;;
12474;SDS011;6302;42.624;23.334;2023-03-19T13:11:54;9.20;;;6.43;;
12474;SDS011;6302;42.624;23.334;2023-03-19T13:14:28;10.37;;;6.60;;
12474;SDS011;6302;42.624;23.334;2023-03-19T13:17:06;9.10;;;6.90;;
12474;SDS011;6302;42.624;23.334;2023-03-19T13:19:42;8.97;;;7.00;;
12474;SDS011;6302;42.624;23.334;2023-03-19T13:22:12;11.07;;;6.13;;
12474;SDS011;6302;42.624;23.334;2023-03-19T13:24:44;7.97;;;6.07;;
12474;SDS011;6302;42.624;23.334;2023-03-19T13:27:14;8.07;;;6.03;;
12474;SDS011;6302;42.624;23.334;2023-03-19T13:29:55;6.60;;;5.90;;
12474;SDS011;6302;42.624;23.334;2023-03-19T13:32:33;7.87;;;6.33;;
12474;SDS011;6302;42.624;23.334;2023-03-19T13:38:08;7.93;;;6.37;;
12474;SDS011;6302;42.624;23.334;2023-03-19T13:40:43;9.80;;;5.97;;
12474;SDS011;6302;42.624;23.334;2023-03-19T13:43:22;8.30;;;5.70;;
12474;SDS011;6302;42.624;23.334;2023-03-19T13:48:56;7.60;;;6.30;;
12474;SDS011;6302;42.624;23.334;2023-03-19T13:51:29;7.23;;;5.90;;
12474;SDS011;6302;42.624;23.334;2023-03-19T13:54:03;9.13;;;5.80;;
12474;SDS011;6302;42.624;23.334;2023-03-19T13:56:54;9.23;;;6.87;;
12474;SDS011;6302;42.624;23.334;2023-03-19T13:59:29;7.10;;;6.13;;
12474;SDS011;6302;42.624;23.334;2023-03-19T14:01:57;7.90;;;6.60;;
12474;SDS011;6302;42.624;23.334;2023-03-19T14:04:27;9.70;;;7.30;;
12474;SDS011;6302;42.624;23.334;2023-03-19T14:06:56;7.60;;;5.67;;
12474;SDS011;6302;42.624;23.334;2023-03-19T14:09:29;6.70;;;5.77;;
12474;SDS011;6302;42.624;23.334;2023-03-19T14:12:09;11.50;;;5.63;;
12474;SDS011;6302;42.624;23.334;2023-03-19T14:14:46;8.47;;;5.47;;
12474;SDS011;6302;42.624;23.334;2023-03-19T14:17:18;11.10;;;6.17;;
12474;SDS011;6302;42.624;23.334;2023-03-19T14:19:50;5.70;;;5.10;;
12474;SDS011;6302;42.624;23.334;2023-03-19T14:22:19;8.30;;;5.87;;
12474;SDS011;6302;42.624;23.334;2023-03-19T14:24:55;7.80;;;5.90;;
12474;SDS011;6302;42.624;23.334;2023-03-19T14:27:30;10.00;;;6.13;;
12474;SDS011;6302;42.624;23.334;2023-03-19T14:29:58;8.83;;;6.60;;
12474;SDS011;6302;42.624;23.334;2023-03-19T14:32:33;8.40;;;7.00;;
12474;SDS011;6302;42.624;23.334;2023-03-19T14:35:06;7.60;;;5.40;;
12474;SDS011;6302;42.624;23.334;2023-03-19T14:37:41;8.97;;;5.97;;
12474;SDS011;6302;42.624;23.334;2023-03-19T14:40:13;6.47;;;5.87;;
12474;SDS011;6302;42.624;23.334;2023-03-19T14:42:46;9.47;;;6.10;;
12474;SDS011;6302;42.624;23.334;2023-03-19T14:45:29;6.47;;;5.83;;
12474;SDS011;6302;42.624;23.334;2023-03-19T14:48:19;9.67;;;6.60;;
12474;SDS011;6302;42.624;23.334;2023-03-19T14:53:43;7.33;;;5.90;;
12474;SDS011;6302;42.624;23.334;2023-03-19T14:56:18;6.70;;;5.83;;
12474;SDS011;6302;42.624;23.334;2023-03-19T14:58:52;8.80;;;6.27;;
12474;SDS011;6302;42.624;23.334;2023-03-19T15:01:20;6.83;;;5.97;;
12474;SDS011;6302;42.624;23.334;2023-03-19T15:03:52;7.87;;;6.70;;
12474;SDS011;6302;42.624;23.334;2023-03-19T15:06:22;7.37;;;6.10;;
12474;SDS011;6302;42.624;23.334;2023-03-19T15:08:49;6.87;;;5.47;;
12474;SDS011;6302;42.624;23.334;2023-03-19T15:11:23;9.27;;;5.60;;
12474;SDS011;6302;42.624;23.334;2023-03-19T15:14:12;9.20;;;5.53;;
12474;SDS011;6302;42.624;23.334;2023-03-19T15:16:51;7.57;;;5.70;;
12474;SDS011;6302;42.624;23.334;2023-03-19T15:19:26;7.87;;;5.27;;